sensor_id;sensor_type;location;lat;lon;timestamp;P1;durP1;ratioP1;P2;durP2;ratioP2
27293;SDS011;14785;52.556;13.430;2022-09-09T00:02:00;11.17;;;9.97;;
27293;SDS011;14785;52.556;13.430;2022-09-09T00:04:59;9.07;;;8.13;;
27293;SDS011;14785;52.556;13.430;2022-09-09T00:07:41;11.43;;;10.25;;
27293;SDS011;14785;52.556;13.430;2022-09-09T00:15:42;8.20;;;7.43;;
27293;SDS011;14785;52.556;13.430;2022-09-09T00:20:48;13.40;;;11.90;;
27293;SDS011;14785;52.556;13.430;2022-09-09T00:23:19;12.77;;;9.40;;
27293;SDS011;14785;52.556;13.430;2022-09-09T00:28:44;15.55;;;13.82;;
27293;SDS011;14785;52.556;13.430;2022-09-09T00:31:30;15.00;;;12.75;;
27293;SDS011;14785;52.556;13.430;2022-09-09T00:34:02;16.98;;;12.48;;
27293;SDS011;14785;52.556;13.430;2022-09-09T00:36:41;15.25;;;13.65;;
27293;SDS011;14785;52.556;13.430;2022-09-09T00:39:09;11.95;;;10.02;;
27293;SDS011;14785;52.556;13.430;2022-09-09T00:41:51;13.48;;;11.15;;
27293;SDS011;14785;52.556;13.430;2022-09-09T00:52:46;14.60;;;10.73;;
27293;SDS011;14785;52.556;13.430;2022-09-09T00:58:14;15.50;;;12.93;;
27293;SDS011;14785;52.556;13.430;2022-09-09T01:03:39;12.07;;;10.90;;
27293;SDS011;14785;52.556;13.430;2022-09-09T01:06:14;20.25;;;13.73;;
27293;SDS011;14785;52.556;13.430;2022-09-09T01:11:49;14.88;;;13.02;;
27293;SDS011;14785;52.556;13.430;2022-09-09T01:14:20;12.20;;;9.82;;
27293;SDS011;14785;52.556;13.430;2022-09-09T01:19:45;17.15;;;15.15;;
27293;SDS011;14785;52.556;13.430;2022-09-09T01:25:20;16.00;;;14.35;;
27293;SDS011;14785;52.556;13.430;2022-09-09T01:27:53;14.98;;;13.27;;
27293;SDS011;14785;52.556;13.430;2022-09-09T01:30:23;18.70;;;15.55;;
27293;SDS011;14785;52.556;13.430;2022-09-09T01:32:51;16.60;;;13.80;;
27293;SDS011;14785;52.556;13.430;2022-09-09T01:37:51;22.02;;;19.65;;
27293;SDS011;14785;52.556;13.430;2022-09-09T01:40:17;13.77;;;12.37;;
27293;SDS011;14785;52.556;13.430;2022-09-09T01:42:42;12.60;;;10.23;;
27293;SDS011;14785;52.556;13.430;2022-09-09T01:45:07;15.17;;;13.63;;
27293;SDS011;14785;52.556;13.430;2022-09-09T01:47:34;16.02;;;14.43;;
27293;SDS011;14785;52.556;13.430;2022-09-09T01:49:59;15.48;;;12.38;;
27293;SDS011;14785;52.556;13.430;2022-09-09T01:52:26;18.90;;;14.77;;
27293;SDS011;14785;52.556;13.430;2022-09-09T01:54:52;14.70;;;12.97;;
27293;SDS011;14785;52.556;13.430;2022-09-09T01:57:19;16.60;;;11.97;;
27293;SDS011;14785;52.556;13.430;2022-09-09T02:00:09;16.70;;;14.13;;
27293;SDS011;14785;52.556;13.430;2022-09-09T02:08:11;14.82;;;12.90;;
27293;SDS011;14785;52.556;13.430;2022-09-09T02:13:25;10.85;;;9.77;;
27293;SDS011;14785;52.556;13.430;2022-09-09T02:18:42;15.13;;;13.02;;
27293;SDS011;14785;52.556;13.430;2022-09-09T02:21:12;14.65;;;12.45;;
27293;SDS011;14785;52.556;13.430;2022-09-09T02:26:06;16.50;;;14.30;;
27293;SDS011;14785;52.556;13.430;2022-09-09T02:28:33;15.98;;;14.30;;
27293;SDS011;14785;52.556;13.430;2022-09-09T02:31:01;12.07;;;10.73;;
27293;SDS011;14785;52.556;13.430;2022-09-09T02:33:28;14.47;;;11.53;;
27293;SDS011;14785;52.556;13.430;2022-09-09T02:36:01;12.60;;;11.13;;
27293;SDS011;14785;52.556;13.430;2022-09-09T02:38:29;12.07;;;9.23;;
27293;SDS011;14785;52.556;13.430;2022-09-09T02:40:59;8.95;;;8.10;;
27293;SDS011;14785;52.556;13.430;2022-09-09T02:43:30;19.90;;;13.13;;
27293;SDS011;14785;52.556;13.430;2022-09-09T02:49:24;10.60;;;9.48;;
27293;SDS011;14785;52.556;13.430;2022-09-09T02:52:20;15.23;;;10.82;;
27293;SDS011;14785;52.556;13.430;2022-09-09T02:54:42;11.38;;;7.75;;
27293;SDS011;14785;52.556;13.430;2022-09-09T02:57:19;13.30;;;11.50;;
27293;SDS011;14785;52.556;13.430;2022-09-09T02:59:48;11.65;;;9.48;;
27293;SDS011;14785;52.556;13.430;2022-09-09T03:04:40;13.13;;;10.68;;
27293;SDS011;14785;52.556;13.430;2022-09-09T03:07:09;9.38;;;7.93;;
27293;SDS011;14785;52.556;13.430;2022-09-09T03:09:34;7.30;;;6.60;;
27293;SDS011;14785;52.556;13.430;2022-09-09T03:12:00;6.10;;;5.50;;
27293;SDS011;14785;52.556;13.430;2022-09-09T03:14:25;6.23;;;5.53;;
27293;SDS011;14785;52.556;13.430;2022-09-09T03:16:51;11.87;;;8.10;;
27293;SDS011;14785;52.556;13.430;2022-09-09T03:19:17;11.93;;;10.32;;
27293;SDS011;14785;52.556;13.430;2022-09-09T03:21:43;13.85;;;9.57;;
27293;SDS011;14785;52.556;13.430;2022-09-09T03:24:10;11.60;;;10.18;;
27293;SDS011;14785;52.556;13.430;2022-09-09T03:26:35;17.50;;;12.10;;
27293;SDS011;14785;52.556;13.430;2022-09-09T03:29:02;15.60;;;11.80;;
27293;SDS011;14785;52.556;13.430;2022-09-09T03:31:28;15.13;;;11.43;;
27293;SDS011;14785;52.556;13.430;2022-09-09T03:33:55;13.90;;;9.52;;
27293;SDS011;14785;52.556;13.430;2022-09-09T03:36:23;12.38;;;10.10;;
27293;SDS011;14785;52.556;13.430;2022-09-09T03:38:48;12.57;;;10.80;;
27293;SDS011;14785;52.556;13.430;2022-09-09T03:41:13;15.00;;;12.03;;
27293;SDS011;14785;52.556;13.430;2022-09-09T03:43:39;13.50;;;9.33;;
27293;SDS011;14785;52.556;13.430;2022-09-09T03:46:04;14.50;;;10.53;;
27293;SDS011;14785;52.556;13.430;2022-09-09T03:48:30;13.97;;;11.40;;
27293;SDS011;14785;52.556;13.430;2022-09-09T03:50:55;13.70;;;10.03;;
27293;SDS011;14785;52.556;13.430;2022-09-09T03:53:23;11.02;;;9.65;;
27293;SDS011;14785;52.556;13.430;2022-09-09T03:55:50;15.40;;;10.45;;
27293;SDS011;14785;52.556;13.430;2022-09-09T03:58:20;20.70;;;15.23;;
27293;SDS011;14785;52.556;13.430;2022-09-09T04:00:56;34.33;;;26.58;;
27293;SDS011;14785;52.556;13.430;2022-09-09T04:03:23;16.20;;;12.27;;
27293;SDS011;14785;52.556;13.430;2022-09-09T04:05:50;54.67;;;41.08;;
27293;SDS011;14785;52.556;13.430;2022-09-09T04:08:16;34.70;;;25.35;;
27293;SDS011;14785;52.556;13.430;2022-09-09T04:10:41;6.90;;;5.17;;
27293;SDS011;14785;52.556;13.430;2022-09-09T04:13:07;13.90;;;9.93;;
27293;SDS011;14785;52.556;13.430;2022-09-09T04:15:32;12.60;;;7.87;;
27293;SDS011;14785;52.556;13.430;2022-09-09T04:17:59;10.13;;;8.88;;
27293;SDS011;14785;52.556;13.430;2022-09-09T04:20:25;10.45;;;8.38;;
27293;SDS011;14785;52.556;13.430;2022-09-09T04:22:50;9.20;;;6.93;;
27293;SDS011;14785;52.556;13.430;2022-09-09T04:25:16;9.40;;;8.40;;
27293;SDS011;14785;52.556;13.430;2022-09-09T04:27:41;10.37;;;7.77;;
27293;SDS011;14785;52.556;13.430;2022-09-09T04:30:07;13.55;;;8.70;;
27293;SDS011;14785;52.556;13.430;2022-09-09T04:32:33;81.72;;;49.75;;
27293;SDS011;14785;52.556;13.430;2022-09-09T04:34:59;22.70;;;18.07;;
27293;SDS011;14785;52.556;13.430;2022-09-09T04:37:24;15.03;;;8.73;;
27293;SDS011;14785;52.556;13.430;2022-09-09T04:39:49;14.50;;;9.30;;
27293;SDS011;14785;52.556;13.430;2022-09-09T04:42:15;10.90;;;6.37;;
27293;SDS011;14785;52.556;13.430;2022-09-09T04:44:42;10.57;;;7.45;;
27293;SDS011;14785;52.556;13.430;2022-09-09T04:47:08;13.32;;;8.32;;
27293;SDS011;14785;52.556;13.430;2022-09-09T04:49:34;11.25;;;7.03;;
27293;SDS011;14785;52.556;13.430;2022-09-09T04:52:00;9.25;;;6.45;;
27293;SDS011;14785;52.556;13.430;2022-09-09T04:54:26;18.75;;;8.15;;
27293;SDS011;14785;52.556;13.430;2022-09-09T04:56:53;7.40;;;6.50;;
27293;SDS011;14785;52.556;13.430;2022-09-09T04:59:19;12.02;;;8.75;;
27293;SDS011;14785;52.556;13.430;2022-09-09T05:01:45;7.30;;;6.57;;
27293;SDS011;14785;52.556;13.430;2022-09-09T05:04:10;11.03;;;8.43;;
27293;SDS011;14785;52.556;13.430;2022-09-09T05:06:36;14.97;;;10.10;;
27293;SDS011;14785;52.556;13.430;2022-09-09T05:09:02;7.20;;;5.90;;
27293;SDS011;14785;52.556;13.430;2022-09-09T05:11:29;9.98;;;7.32;;
27293;SDS011;14785;52.556;13.430;2022-09-09T05:13:57;10.95;;;6.40;;
27293;SDS011;14785;52.556;13.430;2022-09-09T05:16:22;11.23;;;9.30;;
27293;SDS011;14785;52.556;13.430;2022-09-09T05:18:48;11.53;;;7.80;;
27293;SDS011;14785;52.556;13.430;2022-09-09T05:21:16;8.50;;;6.80;;
27293;SDS011;14785;52.556;13.430;2022-09-09T05:23:43;10.38;;;7.90;;
27293;SDS011;14785;52.556;13.430;2022-09-09T05:26:12;12.48;;;6.57;;
27293;SDS011;14785;52.556;13.430;2022-09-09T05:28:39;12.63;;;7.05;;
27293;SDS011;14785;52.556;13.430;2022-09-09T05:31:05;9.27;;;6.50;;
27293;SDS011;14785;52.556;13.430;2022-09-09T05:33:39;13.18;;;9.10;;
27293;SDS011;14785;52.556;13.430;2022-09-09T05:36:09;16.65;;;10.23;;
27293;SDS011;14785;52.556;13.430;2022-09-09T05:38:38;8.57;;;6.47;;
27293;SDS011;14785;52.556;13.430;2022-09-09T05:41:04;11.55;;;7.43;;
27293;SDS011;14785;52.556;13.430;2022-09-09T05:43:29;8.63;;;6.43;;
27293;SDS011;14785;52.556;13.430;2022-09-09T05:46:03;12.25;;;5.80;;
27293;SDS011;14785;52.556;13.430;2022-09-09T05:48:31;10.20;;;6.07;;
27293;SDS011;14785;52.556;13.430;2022-09-09T05:50:58;9.50;;;6.45;;
27293;SDS011;14785;52.556;13.430;2022-09-09T05:53:24;9.77;;;6.50;;
27293;SDS011;14785;52.556;13.430;2022-09-09T05:55:50;13.15;;;8.00;;
27293;SDS011;14785;52.556;13.430;2022-09-09T05:58:22;14.02;;;7.32;;
27293;SDS011;14785;52.556;13.430;2022-09-09T06:00:49;8.43;;;6.20;;
27293;SDS011;14785;52.556;13.430;2022-09-09T06:03:15;14.10;;;6.45;;
27293;SDS011;14785;52.556;13.430;2022-09-09T06:08:07;15.03;;;6.13;;
27293;SDS011;14785;52.556;13.430;2022-09-09T06:10:32;11.37;;;6.20;;
27293;SDS011;14785;52.556;13.430;2022-09-09T06:12:59;11.27;;;6.53;;
27293;SDS011;14785;52.556;13.430;2022-09-09T06:15:24;32.13;;;19.93;;
27293;SDS011;14785;52.556;13.430;2022-09-09T06:17:53;12.63;;;5.77;;
27293;SDS011;14785;52.556;13.430;2022-09-09T06:20:20;10.80;;;4.70;;
27293;SDS011;14785;52.556;13.430;2022-09-09T06:22:46;10.55;;;6.68;;
27293;SDS011;14785;52.556;13.430;2022-09-09T06:25:13;9.27;;;6.30;;
27293;SDS011;14785;52.556;13.430;2022-09-09T06:27:39;10.82;;;6.78;;
27293;SDS011;14785;52.556;13.430;2022-09-09T06:30:05;11.07;;;6.13;;
27293;SDS011;14785;52.556;13.430;2022-09-09T06:32:32;9.77;;;5.28;;
27293;SDS011;14785;52.556;13.430;2022-09-09T06:35:01;11.18;;;5.63;;
27293;SDS011;14785;52.556;13.430;2022-09-09T06:37:27;12.93;;;4.80;;
27293;SDS011;14785;52.556;13.430;2022-09-09T06:39:52;8.03;;;5.63;;
27293;SDS011;14785;52.556;13.430;2022-09-09T06:42:19;7.68;;;4.30;;
27293;SDS011;14785;52.556;13.430;2022-09-09T06:44:44;7.93;;;4.77;;
27293;SDS011;14785;52.556;13.430;2022-09-09T06:47:10;12.43;;;5.33;;
27293;SDS011;14785;52.556;13.430;2022-09-09T06:49:35;13.50;;;6.00;;
27293;SDS011;14785;52.556;13.430;2022-09-09T06:52:01;8.67;;;5.63;;
27293;SDS011;14785;52.556;13.430;2022-09-09T06:54:26;15.67;;;4.77;;
27293;SDS011;14785;52.556;13.430;2022-09-09T06:56:51;9.03;;;5.00;;
27293;SDS011;14785;52.556;13.430;2022-09-09T06:59:17;9.30;;;5.30;;
27293;SDS011;14785;52.556;13.430;2022-09-09T07:01:42;11.33;;;4.30;;
27293;SDS011;14785;52.556;13.430;2022-09-09T07:04:16;11.02;;;4.45;;
27293;SDS011;14785;52.556;13.430;2022-09-09T07:06:44;6.50;;;4.13;;
27293;SDS011;14785;52.556;13.430;2022-09-09T07:09:12;7.75;;;3.75;;
27293;SDS011;14785;52.556;13.430;2022-09-09T07:11:39;9.20;;;5.13;;
27293;SDS011;14785;52.556;13.430;2022-09-09T07:14:06;6.63;;;4.72;;
27293;SDS011;14785;52.556;13.430;2022-09-09T07:16:32;12.63;;;4.97;;
27293;SDS011;14785;52.556;13.430;2022-09-09T07:18:58;12.20;;;3.90;;
27293;SDS011;14785;52.556;13.430;2022-09-09T07:21:24;12.33;;;4.33;;
27293;SDS011;14785;52.556;13.430;2022-09-09T07:23:54;10.35;;;4.35;;
27293;SDS011;14785;52.556;13.430;2022-09-09T07:26:20;6.47;;;3.08;;
27293;SDS011;14785;52.556;13.430;2022-09-09T07:28:48;12.10;;;4.70;;
27293;SDS011;14785;52.556;13.430;2022-09-09T07:31:14;9.02;;;3.50;;
27293;SDS011;14785;52.556;13.430;2022-09-09T07:33:42;12.93;;;4.05;;
27293;SDS011;14785;52.556;13.430;2022-09-09T07:36:10;8.48;;;3.60;;
27293;SDS011;14785;52.556;13.430;2022-09-09T07:38:39;9.43;;;3.40;;
27293;SDS011;14785;52.556;13.430;2022-09-09T07:41:07;9.15;;;4.03;;
27293;SDS011;14785;52.556;13.430;2022-09-09T07:43:40;7.70;;;3.75;;
27293;SDS011;14785;52.556;13.430;2022-09-09T07:46:08;8.45;;;3.00;;
27293;SDS011;14785;52.556;13.430;2022-09-09T07:48:34;9.05;;;3.05;;
27293;SDS011;14785;52.556;13.430;2022-09-09T07:51:11;15.40;;;3.42;;
27293;SDS011;14785;52.556;13.430;2022-09-09T07:53:41;10.88;;;3.20;;
27293;SDS011;14785;52.556;13.430;2022-09-09T07:56:08;8.52;;;3.08;;
27293;SDS011;14785;52.556;13.430;2022-09-09T07:58:36;9.02;;;3.30;;
27293;SDS011;14785;52.556;13.430;2022-09-09T08:01:09;10.43;;;3.00;;
27293;SDS011;14785;52.556;13.430;2022-09-09T08:03:37;8.32;;;3.15;;
27293;SDS011;14785;52.556;13.430;2022-09-09T08:06:03;12.98;;;3.15;;
27293;SDS011;14785;52.556;13.430;2022-09-09T08:08:31;10.15;;;3.70;;
27293;SDS011;14785;52.556;13.430;2022-09-09T08:11:05;8.57;;;2.95;;
27293;SDS011;14785;52.556;13.430;2022-09-09T08:13:34;10.23;;;3.13;;
27293;SDS011;14785;52.556;13.430;2022-09-09T08:16:12;12.10;;;3.30;;
27293;SDS011;14785;52.556;13.430;2022-09-09T08:18:39;9.73;;;3.20;;
27293;SDS011;14785;52.556;13.430;2022-09-09T08:21:09;12.57;;;3.20;;
27293;SDS011;14785;52.556;13.430;2022-09-09T08:23:38;8.57;;;2.38;;
27293;SDS011;14785;52.556;13.430;2022-09-09T08:26:07;11.98;;;3.20;;
27293;SDS011;14785;52.556;13.430;2022-09-09T08:28:36;9.20;;;2.70;;
27293;SDS011;14785;52.556;13.430;2022-09-09T08:31:05;13.67;;;2.93;;
27293;SDS011;14785;52.556;13.430;2022-09-09T08:33:41;8.20;;;3.33;;
27293;SDS011;14785;52.556;13.430;2022-09-09T08:36:10;8.48;;;2.47;;
27293;SDS011;14785;52.556;13.430;2022-09-09T08:38:40;10.10;;;3.22;;
27293;SDS011;14785;52.556;13.430;2022-09-09T08:43:58;10.53;;;3.23;;
27293;SDS011;14785;52.556;13.430;2022-09-09T08:46:32;10.38;;;3.88;;
27293;SDS011;14785;52.556;13.430;2022-09-09T08:49:17;6.75;;;2.72;;
27293;SDS011;14785;52.556;13.430;2022-09-09T08:51:53;8.70;;;2.90;;
27293;SDS011;14785;52.556;13.430;2022-09-09T08:54:21;8.75;;;3.22;;
27293;SDS011;14785;52.556;13.430;2022-09-09T08:56:47;10.30;;;4.20;;
27293;SDS011;14785;52.556;13.430;2022-09-09T08:59:15;6.05;;;2.45;;
27293;SDS011;14785;52.556;13.430;2022-09-09T09:12:40;9.43;;;3.60;;
27293;SDS011;14785;52.556;13.430;2022-09-09T09:15:14;9.40;;;2.92;;
27293;SDS011;14785;52.556;13.430;2022-09-09T09:17:43;11.48;;;2.55;;
27293;SDS011;14785;52.556;13.430;2022-09-09T09:20:13;15.20;;;2.70;;
27293;SDS011;14785;52.556;13.430;2022-09-09T09:22:50;12.02;;;2.72;;
27293;SDS011;14785;52.556;13.430;2022-09-09T09:25:19;5.18;;;2.83;;
27293;SDS011;14785;52.556;13.430;2022-09-09T09:27:59;8.13;;;2.55;;
27293;SDS011;14785;52.556;13.430;2022-09-09T09:33:34;10.05;;;3.17;;
27293;SDS011;14785;52.556;13.430;2022-09-09T09:36:08;9.77;;;2.90;;
27293;SDS011;14785;52.556;13.430;2022-09-09T09:38:34;8.20;;;2.50;;
27293;SDS011;14785;52.556;13.430;2022-09-09T09:41:00;11.02;;;3.65;;
27293;SDS011;14785;52.556;13.430;2022-09-09T09:43:27;7.30;;;2.58;;
27293;SDS011;14785;52.556;13.430;2022-09-09T09:45:54;10.02;;;2.58;;
27293;SDS011;14785;52.556;13.430;2022-09-09T09:48:22;17.15;;;2.58;;
27293;SDS011;14785;52.556;13.430;2022-09-09T09:51:31;9.05;;;2.20;;
27293;SDS011;14785;52.556;13.430;2022-09-09T09:53:41;9.40;;;2.17;;
27293;SDS011;14785;52.556;13.430;2022-09-09T09:56:08;8.52;;;2.05;;
27293;SDS011;14785;52.556;13.430;2022-09-09T10:01:18;9.57;;;2.00;;
27293;SDS011;14785;52.556;13.430;2022-09-09T10:03:53;9.93;;;2.20;;
27293;SDS011;14785;52.556;13.430;2022-09-09T10:09:01;6.80;;;2.13;;
27293;SDS011;14785;52.556;13.430;2022-09-09T10:11:39;9.07;;;2.28;;
27293;SDS011;14785;52.556;13.430;2022-09-09T10:14:30;7.50;;;2.35;;
27293;SDS011;14785;52.556;13.430;2022-09-09T10:19:51;9.38;;;2.40;;
27293;SDS011;14785;52.556;13.430;2022-09-09T10:22:44;5.25;;;2.13;;
27293;SDS011;14785;52.556;13.430;2022-09-09T10:33:49;4.70;;;2.13;;
27293;SDS011;14785;52.556;13.430;2022-09-09T10:36:20;10.77;;;2.15;;
27293;SDS011;14785;52.556;13.430;2022-09-09T10:38:58;7.10;;;2.03;;
27293;SDS011;14785;52.556;13.430;2022-09-09T10:41:44;6.35;;;2.08;;
27293;SDS011;14785;52.556;13.430;2022-09-09T10:52:38;7.45;;;2.10;;
27293;SDS011;14785;52.556;13.430;2022-09-09T10:57:45;4.03;;;2.50;;
27293;SDS011;14785;52.556;13.430;2022-09-09T11:00:15;5.95;;;1.92;;
27293;SDS011;14785;52.556;13.430;2022-09-09T11:02:44;11.98;;;2.85;;
27293;SDS011;14785;52.556;13.430;2022-09-09T11:05:19;5.82;;;2.00;;
27293;SDS011;14785;52.556;13.430;2022-09-09T11:07:48;5.60;;;1.42;;
27293;SDS011;14785;52.556;13.430;2022-09-09T11:12:56;4.90;;;1.30;;
27293;SDS011;14785;52.556;13.430;2022-09-09T11:15:39;5.55;;;1.42;;
27293;SDS011;14785;52.556;13.430;2022-09-09T11:18:13;4.45;;;1.67;;
27293;SDS011;14785;52.556;13.430;2022-09-09T11:20:48;5.88;;;1.80;;
27293;SDS011;14785;52.556;13.430;2022-09-09T11:23:20;6.25;;;1.83;;
27293;SDS011;14785;52.556;13.430;2022-09-09T11:25:54;3.80;;;1.42;;
27293;SDS011;14785;52.556;13.430;2022-09-09T11:28:32;3.95;;;1.55;;
27293;SDS011;14785;52.556;13.430;2022-09-09T11:39:57;4.60;;;1.35;;
27293;SDS011;14785;52.556;13.430;2022-09-09T11:42:42;4.05;;;1.67;;
27293;SDS011;14785;52.556;13.430;2022-09-09T11:45:08;4.45;;;1.60;;
27293;SDS011;14785;52.556;13.430;2022-09-09T11:47:36;5.55;;;1.67;;
27293;SDS011;14785;52.556;13.430;2022-09-09T11:52:40;4.05;;;1.40;;
27293;SDS011;14785;52.556;13.430;2022-09-09T11:55:30;6.13;;;1.95;;
27293;SDS011;14785;52.556;13.430;2022-09-09T11:57:59;6.03;;;1.73;;
27293;SDS011;14785;52.556;13.430;2022-09-09T12:03:30;3.35;;;1.55;;
27293;SDS011;14785;52.556;13.430;2022-09-09T12:06:29;4.47;;;1.38;;
27293;SDS011;14785;52.556;13.430;2022-09-09T12:09:07;3.92;;;1.50;;
27293;SDS011;14785;52.556;13.430;2022-09-09T12:11:34;7.63;;;1.80;;
27293;SDS011;14785;52.556;13.430;2022-09-09T12:14:00;5.67;;;1.60;;
27293;SDS011;14785;52.556;13.430;2022-09-09T12:21:39;6.03;;;1.40;;
27293;SDS011;14785;52.556;13.430;2022-09-09T12:24:11;2.63;;;1.20;;
27293;SDS011;14785;52.556;13.430;2022-09-09T12:32:13;3.13;;;1.20;;
27293;SDS011;14785;52.556;13.430;2022-09-09T12:39:55;2.78;;;1.30;;
27293;SDS011;14785;52.556;13.430;2022-09-09T12:42:22;4.65;;;1.10;;
27293;SDS011;14785;52.556;13.430;2022-09-09T12:44:58;4.65;;;1.05;;
27293;SDS011;14785;52.556;13.430;2022-09-09T12:47:44;4.18;;;1.70;;
27293;SDS011;14785;52.556;13.430;2022-09-09T12:50:18;5.00;;;1.33;;
27293;SDS011;14785;52.556;13.430;2022-09-09T12:52:46;3.53;;;1.30;;
27293;SDS011;14785;52.556;13.430;2022-09-09T12:55:19;4.93;;;1.83;;
27293;SDS011;14785;52.556;13.430;2022-09-09T12:57:46;6.30;;;1.73;;
27293;SDS011;14785;52.556;13.430;2022-09-09T13:00:18;7.93;;;1.40;;
27293;SDS011;14785;52.556;13.430;2022-09-09T13:02:48;5.32;;;1.25;;
27293;SDS011;14785;52.556;13.430;2022-09-09T13:05:17;6.65;;;1.80;;
27293;SDS011;14785;52.556;13.430;2022-09-09T13:07:45;4.22;;;1.55;;
27293;SDS011;14785;52.556;13.430;2022-09-09T13:10:12;8.88;;;3.92;;
27293;SDS011;14785;52.556;13.430;2022-09-09T13:12:39;8.05;;;1.60;;
27293;SDS011;14785;52.556;13.430;2022-09-09T13:15:10;6.05;;;1.38;;
27293;SDS011;14785;52.556;13.430;2022-09-09T13:17:48;6.28;;;1.92;;
27293;SDS011;14785;52.556;13.430;2022-09-09T13:20:16;4.63;;;1.85;;
27293;SDS011;14785;52.556;13.430;2022-09-09T13:22:43;6.55;;;1.42;;
27293;SDS011;14785;52.556;13.430;2022-09-09T13:27:36;6.70;;;1.48;;
27293;SDS011;14785;52.556;13.430;2022-09-09T13:38:24;5.05;;;1.80;;
27293;SDS011;14785;52.556;13.430;2022-09-09T13:40:56;3.55;;;1.30;;
27293;SDS011;14785;52.556;13.430;2022-09-09T13:43:42;5.22;;;1.40;;
27293;SDS011;14785;52.556;13.430;2022-09-09T13:51:41;4.00;;;1.23;;
27293;SDS011;14785;52.556;13.430;2022-09-09T13:54:12;2.83;;;1.08;;
27293;SDS011;14785;52.556;13.430;2022-09-09T13:56:40;4.97;;;1.38;;
27293;SDS011;14785;52.556;13.430;2022-09-09T13:59:09;6.03;;;1.52;;
27293;SDS011;14785;52.556;13.430;2022-09-09T14:01:47;2.50;;;1.08;;
27293;SDS011;14785;52.556;13.430;2022-09-09T14:04:14;6.35;;;1.73;;
27293;SDS011;14785;52.556;13.430;2022-09-09T14:06:40;5.90;;;1.30;;
27293;SDS011;14785;52.556;13.430;2022-09-09T14:09:06;4.13;;;1.47;;
27293;SDS011;14785;52.556;13.430;2022-09-09T14:11:34;4.53;;;1.25;;
27293;SDS011;14785;52.556;13.430;2022-09-09T14:13:59;7.43;;;1.10;;
27293;SDS011;14785;52.556;13.430;2022-09-09T14:16:25;3.03;;;1.58;;
27293;SDS011;14785;52.556;13.430;2022-09-09T14:18:52;4.00;;;1.35;;
27293;SDS011;14785;52.556;13.430;2022-09-09T14:21:18;5.05;;;1.50;;
27293;SDS011;14785;52.556;13.430;2022-09-09T14:23:43;4.23;;;1.23;;
27293;SDS011;14785;52.556;13.430;2022-09-09T14:26:08;5.27;;;1.50;;
27293;SDS011;14785;52.556;13.430;2022-09-09T14:28:35;9.13;;;3.80;;
27293;SDS011;14785;52.556;13.430;2022-09-09T14:31:02;5.18;;;1.23;;
27293;SDS011;14785;52.556;13.430;2022-09-09T14:33:29;5.10;;;1.75;;
27293;SDS011;14785;52.556;13.430;2022-09-09T14:35:55;8.20;;;1.70;;
27293;SDS011;14785;52.556;13.430;2022-09-09T14:38:22;3.15;;;1.15;;
27293;SDS011;14785;52.556;13.430;2022-09-09T14:40:47;4.53;;;1.60;;
27293;SDS011;14785;52.556;13.430;2022-09-09T14:43:13;3.17;;;1.23;;
27293;SDS011;14785;52.556;13.430;2022-09-09T14:45:39;4.50;;;1.48;;
27293;SDS011;14785;52.556;13.430;2022-09-09T14:48:04;3.57;;;1.20;;
27293;SDS011;14785;52.556;13.430;2022-09-09T14:50:29;4.60;;;1.20;;
27293;SDS011;14785;52.556;13.430;2022-09-09T14:52:55;4.27;;;1.43;;
27293;SDS011;14785;52.556;13.430;2022-09-09T14:55:20;5.97;;;1.30;;
27293;SDS011;14785;52.556;13.430;2022-09-09T14:57:46;5.55;;;1.58;;
27293;SDS011;14785;52.556;13.430;2022-09-09T15:00:11;5.50;;;1.67;;
27293;SDS011;14785;52.556;13.430;2022-09-09T15:02:38;3.90;;;1.27;;
27293;SDS011;14785;52.556;13.430;2022-09-09T15:05:03;6.47;;;1.50;;
27293;SDS011;14785;52.556;13.430;2022-09-09T15:07:29;3.95;;;1.40;;
27293;SDS011;14785;52.556;13.430;2022-09-09T15:09:56;7.07;;;2.72;;
27293;SDS011;14785;52.556;13.430;2022-09-09T15:12:22;3.17;;;1.40;;
27293;SDS011;14785;52.556;13.430;2022-09-09T15:17:15;3.70;;;1.50;;
27293;SDS011;14785;52.556;13.430;2022-09-09T15:19:40;2.78;;;1.17;;
27293;SDS011;14785;52.556;13.430;2022-09-09T15:22:07;2.47;;;1.00;;
27293;SDS011;14785;52.556;13.430;2022-09-09T15:24:33;3.03;;;1.38;;
27293;SDS011;14785;52.556;13.430;2022-09-09T15:26:59;7.50;;;1.67;;
27293;SDS011;14785;52.556;13.430;2022-09-09T15:29:25;4.97;;;1.30;;
27293;SDS011;14785;52.556;13.430;2022-09-09T15:31:50;5.63;;;1.73;;
27293;SDS011;14785;52.556;13.430;2022-09-09T15:34:15;5.60;;;1.80;;
27293;SDS011;14785;52.556;13.430;2022-09-09T15:36:42;4.57;;;1.53;;
27293;SDS011;14785;52.556;13.430;2022-09-09T15:39:10;8.40;;;2.10;;
27293;SDS011;14785;52.556;13.430;2022-09-09T15:41:37;5.35;;;1.50;;
27293;SDS011;14785;52.556;13.430;2022-09-09T15:44:04;4.88;;;1.45;;
27293;SDS011;14785;52.556;13.430;2022-09-09T15:46:43;5.03;;;1.58;;
27293;SDS011;14785;52.556;13.430;2022-09-09T15:51:47;4.70;;;1.58;;
27293;SDS011;14785;52.556;13.430;2022-09-09T15:54:23;4.72;;;1.45;;
27293;SDS011;14785;52.556;13.430;2022-09-09T15:56:53;3.78;;;1.50;;
27293;SDS011;14785;52.556;13.430;2022-09-09T15:59:21;5.60;;;1.60;;
27293;SDS011;14785;52.556;13.430;2022-09-09T16:04:12;3.92;;;1.52;;
27293;SDS011;14785;52.556;13.430;2022-09-09T16:06:37;4.47;;;1.57;;
27293;SDS011;14785;52.556;13.430;2022-09-09T16:09:04;5.65;;;2.83;;
27293;SDS011;14785;52.556;13.430;2022-09-09T16:11:31;4.28;;;2.00;;
27293;SDS011;14785;52.556;13.430;2022-09-09T16:14:02;5.60;;;2.55;;
27293;SDS011;14785;52.556;13.430;2022-09-09T16:16:29;6.53;;;2.28;;
27293;SDS011;14785;52.556;13.430;2022-09-09T16:19:13;6.47;;;2.65;;
27293;SDS011;14785;52.556;13.430;2022-09-09T16:21:39;5.45;;;1.70;;
27293;SDS011;14785;52.556;13.430;2022-09-09T16:24:07;5.18;;;2.05;;
27293;SDS011;14785;52.556;13.430;2022-09-09T16:26:34;6.45;;;1.92;;
27293;SDS011;14785;52.556;13.430;2022-09-09T16:29:01;4.38;;;1.80;;
27293;SDS011;14785;52.556;13.430;2022-09-09T16:33:54;7.32;;;3.53;;
27293;SDS011;14785;52.556;13.430;2022-09-09T16:36:20;8.73;;;2.43;;
27293;SDS011;14785;52.556;13.430;2022-09-09T16:38:48;5.55;;;2.13;;
27293;SDS011;14785;52.556;13.430;2022-09-09T16:41:18;5.88;;;2.03;;
27293;SDS011;14785;52.556;13.430;2022-09-09T16:43:44;9.13;;;2.72;;
27293;SDS011;14785;52.556;13.430;2022-09-09T16:46:14;5.07;;;2.60;;
27293;SDS011;14785;52.556;13.430;2022-09-09T16:48:42;8.57;;;2.45;;
27293;SDS011;14785;52.556;13.430;2022-09-09T16:51:12;5.05;;;1.85;;
27293;SDS011;14785;52.556;13.430;2022-09-09T16:53:39;17.42;;;4.68;;
27293;SDS011;14785;52.556;13.430;2022-09-09T16:56:05;4.30;;;1.57;;
27293;SDS011;14785;52.556;13.430;2022-09-09T16:58:32;5.75;;;1.80;;
27293;SDS011;14785;52.556;13.430;2022-09-09T17:00:58;5.13;;;2.13;;
27293;SDS011;14785;52.556;13.430;2022-09-09T17:03:24;5.07;;;2.58;;
27293;SDS011;14785;52.556;13.430;2022-09-09T17:05:49;4.73;;;2.20;;
27293;SDS011;14785;52.556;13.430;2022-09-09T17:08:15;5.90;;;2.10;;
27293;SDS011;14785;52.556;13.430;2022-09-09T17:10:41;12.87;;;3.50;;
27293;SDS011;14785;52.556;13.430;2022-09-09T17:13:07;10.85;;;3.30;;
27293;SDS011;14785;52.556;13.430;2022-09-09T17:15:32;6.17;;;3.20;;
27293;SDS011;14785;52.556;13.430;2022-09-09T17:17:59;6.13;;;2.97;;
27293;SDS011;14785;52.556;13.430;2022-09-09T17:20:24;7.57;;;2.95;;